Laredo International Airport
KLRD : now visible

Airfield :











YOU CAN JOIN US ON...

 
LOGIN :

Register | Disclaimer

   EN    FR    IT 

 









Legend :    VFR   Marginal VFR   IFR   Intensive IFR   Very Intensive IFR
Visi :
Ceiling :
>= 8 km
>= 3000ft
5 to 8 km
1000 to 3000 ft
1500m to 5 km
500 to 1000 ft
800 to 1500m
200 to 500 ft
< 800m
< 200 ft
Symbols :   Thunderstorms  Fog  Heavy snow  Heavy precipitations  Wind > 20 kt






- Airport Elevation : 508 ft
- IATA code : LRD


KLRD - Laredo International

CURRENT METAR :
  • 291656Z 34005KT 10SM CLR 27/22 A3009 RMK AO2 SLP186 T02670217

EXPIRED METARs :
  • 291556Z 01006KT 10SM CLR 24/22 A3011 RMK AO2 SLP193 T02390217
  • 291456Z 06003KT 10SM BKN075 22/21 A3010 RMK AO2 RAB00E10 SLP189 P0000 60009 T02220211 53008

TAF KLRD
Valid from the 29 at 12:00 until the 30 at 12:00 UTC


291141Z 2912/3012 06005KT P6SM -SHRA VCTS SCT025CB BKN100 OVC250
TEMPO 2912/2915 -TSRA BKN025CB
FM291500 01008KT P6SM BKN035 OVC250
FM292000 04008KT P6SM BKN050 BKN250
KZHU FIR / North America



MET'MAP, your aeronautical weather chart ! - Copyright ORBIFLY December 2007 - Disclaimer

ORBIFLY MET'MAP TEAM :

Programming & Development : Alexandra Zaïnal
Concept & original design : Baudouin d'Aumeries
Assistance for programming : Marc-Olivier Méhu
Technical & hardware support : Manuel Goepfert

Contact : metmap@orbifly.com




SOURCES & CREDITS :

   NOAA       Earth
Advisory